sensor_id;sensor_type;location;lat;lon;timestamp;temperature;humidity
32217;DHT22;67098;51.140;4.088;2023-03-14T00:00:36;13.10;92.50
32217;DHT22;67098;51.140;4.088;2023-03-14T00:03:02;13.20;92.30
32217;DHT22;67098;51.140;4.088;2023-03-14T00:05:27;13.10;92.50
32217;DHT22;67098;51.140;4.088;2023-03-14T00:07:53;13.10;92.30
32217;DHT22;67098;51.140;4.088;2023-03-14T00:10:20;13.10;92.30
32217;DHT22;67098;51.140;4.088;2023-03-14T00:12:45;12.90;92.40
32217;DHT22;67098;51.140;4.088;2023-03-14T00:15:12;12.80;92.80
32217;DHT22;67098;51.140;4.088;2023-03-14T00:17:38;12.80;92.70
32217;DHT22;67098;51.140;4.088;2023-03-14T00:20:05;12.70;92.60
32217;DHT22;67098;51.140;4.088;2023-03-14T00:22:40;12.70;92.40
32217;DHT22;67098;51.140;4.088;2023-03-14T00:25:08;12.80;92.40
32217;DHT22;67098;51.140;4.088;2023-03-14T00:27:34;12.80;92.20
32217;DHT22;67098;51.140;4.088;2023-03-14T00:30:01;12.80;92.20
32217;DHT22;67098;51.140;4.088;2023-03-14T00:32:27;12.60;92.60
32217;DHT22;67098;51.140;4.088;2023-03-14T00:34:52;12.50;92.90
32217;DHT22;67098;51.140;4.088;2023-03-14T00:37:18;12.70;92.70
32217;DHT22;67098;51.140;4.088;2023-03-14T00:39:44;12.70;93.00
32217;DHT22;67098;51.140;4.088;2023-03-14T00:42:09;12.60;93.10
32217;DHT22;67098;51.140;4.088;2023-03-14T00:44:35;12.60;93.20
32217;DHT22;67098;51.140;4.088;2023-03-14T00:47:01;12.70;92.90
32217;DHT22;67098;51.140;4.088;2023-03-14T00:49:27;12.70;92.80
32217;DHT22;67098;51.140;4.088;2023-03-14T00:51:52;12.80;92.60
32217;DHT22;67098;51.140;4.088;2023-03-14T00:54:19;12.70;92.80
32217;DHT22;67098;51.140;4.088;2023-03-14T00:56:44;12.90;92.60
32217;DHT22;67098;51.140;4.088;2023-03-14T00:59:10;12.90;92.50
32217;DHT22;67098;51.140;4.088;2023-03-14T01:01:38;12.80;92.80
32217;DHT22;67098;51.140;4.088;2023-03-14T01:04:04;12.70;93.10
32217;DHT22;67098;51.140;4.088;2023-03-14T01:06:30;12.70;93.20
32217;DHT22;67098;51.140;4.088;2023-03-14T01:08:56;12.70;93.20
32217;DHT22;67098;51.140;4.088;2023-03-14T01:11:27;12.60;93.80
32217;DHT22;67098;51.140;4.088;2023-03-14T01:13:53;12.50;94.00
32217;DHT22;67098;51.140;4.088;2023-03-14T01:16:20;12.50;93.90
32217;DHT22;67098;51.140;4.088;2023-03-14T01:18:47;12.40;94.30
32217;DHT22;67098;51.140;4.088;2023-03-14T01:23:40;12.40;94.40
32217;DHT22;67098;51.140;4.088;2023-03-14T01:26:10;12.30;94.60
32217;DHT22;67098;51.140;4.088;2023-03-14T01:28:36;12.20;94.90
32217;DHT22;67098;51.140;4.088;2023-03-14T01:31:06;12.20;95.00
32217;DHT22;67098;51.140;4.088;2023-03-14T01:33:32;12.40;94.80
32217;DHT22;67098;51.140;4.088;2023-03-14T01:35:58;12.40;94.70
32217;DHT22;67098;51.140;4.088;2023-03-14T01:38:23;12.50;94.70
32217;DHT22;67098;51.140;4.088;2023-03-14T01:40:49;12.50;94.70
32217;DHT22;67098;51.140;4.088;2023-03-14T01:43:18;12.60;94.40
32217;DHT22;67098;51.140;4.088;2023-03-14T01:48:37;12.70;94.20
32217;DHT22;67098;51.140;4.088;2023-03-14T01:51:07;12.60;94.20
32217;DHT22;67098;51.140;4.088;2023-03-14T01:53:35;12.60;94.40
32217;DHT22;67098;51.140;4.088;2023-03-14T01:56:01;12.50;94.60
32217;DHT22;67098;51.140;4.088;2023-03-14T01:58:30;12.40;94.70
32217;DHT22;67098;51.140;4.088;2023-03-14T02:01:00;12.40;94.60
32217;DHT22;67098;51.140;4.088;2023-03-14T02:03:27;12.50;94.60
32217;DHT22;67098;51.140;4.088;2023-03-14T02:05:56;12.50;94.60
32217;DHT22;67098;51.140;4.088;2023-03-14T02:08:24;12.50;94.70
32217;DHT22;67098;51.140;4.088;2023-03-14T02:10:51;12.50;94.60
32217;DHT22;67098;51.140;4.088;2023-03-14T02:13:18;12.60;94.50
32217;DHT22;67098;51.140;4.088;2023-03-14T02:15:45;12.60;94.30
32217;DHT22;67098;51.140;4.088;2023-03-14T02:18:12;12.60;94.60
32217;DHT22;67098;51.140;4.088;2023-03-14T02:21:04;12.60;94.60
32217;DHT22;67098;51.140;4.088;2023-03-14T02:26:20;12.50;94.60
32217;DHT22;67098;51.140;4.088;2023-03-14T02:28:48;12.60;94.70
32217;DHT22;67098;51.140;4.088;2023-03-14T02:31:14;12.50;94.80
32217;DHT22;67098;51.140;4.088;2023-03-14T02:33:40;12.60;94.60
32217;DHT22;67098;51.140;4.088;2023-03-14T02:36:09;12.50;94.70
32217;DHT22;67098;51.140;4.088;2023-03-14T02:38:51;12.60;94.60
32217;DHT22;67098;51.140;4.088;2023-03-14T02:41:17;12.60;94.60
32217;DHT22;67098;51.140;4.088;2023-03-14T02:43:43;12.70;94.40
32217;DHT22;67098;51.140;4.088;2023-03-14T02:46:13;12.70;94.40
32217;DHT22;67098;51.140;4.088;2023-03-14T02:48:43;12.70;94.50
32217;DHT22;67098;51.140;4.088;2023-03-14T02:51:10;12.80;94.30
32217;DHT22;67098;51.140;4.088;2023-03-14T02:53:37;12.80;94.30
32217;DHT22;67098;51.140;4.088;2023-03-14T02:56:04;12.70;94.50
32217;DHT22;67098;51.140;4.088;2023-03-14T02:58:30;12.60;94.90
32217;DHT22;67098;51.140;4.088;2023-03-14T03:00:56;12.60;94.90
32217;DHT22;67098;51.140;4.088;2023-03-14T03:03:22;12.60;95.10
32217;DHT22;67098;51.140;4.088;2023-03-14T03:05:49;12.80;95.10
32217;DHT22;67098;51.140;4.088;2023-03-14T03:08:16;12.70;95.40
32217;DHT22;67098;51.140;4.088;2023-03-14T03:10:42;12.70;95.60
32217;DHT22;67098;51.140;4.088;2023-03-14T03:13:07;12.80;95.60
32217;DHT22;67098;51.140;4.088;2023-03-14T03:15:33;12.80;95.70
32217;DHT22;67098;51.140;4.088;2023-03-14T03:17:59;12.90;95.50
32217;DHT22;67098;51.140;4.088;2023-03-14T03:20:25;13.00;95.30
32217;DHT22;67098;51.140;4.088;2023-03-14T03:22:50;13.10;95.20
32217;DHT22;67098;51.140;4.088;2023-03-14T03:25:16;13.10;95.20
32217;DHT22;67098;51.140;4.088;2023-03-14T03:27:42;13.10;95.10
32217;DHT22;67098;51.140;4.088;2023-03-14T03:30:09;13.10;95.40
32217;DHT22;67098;51.140;4.088;2023-03-14T03:32:35;12.90;95.70
32217;DHT22;67098;51.140;4.088;2023-03-14T03:35:03;12.90;95.90
32217;DHT22;67098;51.140;4.088;2023-03-14T03:37:31;12.90;96.10
32217;DHT22;67098;51.140;4.088;2023-03-14T03:39:56;12.80;96.30
32217;DHT22;67098;51.140;4.088;2023-03-14T03:42:22;12.80;96.30
32217;DHT22;67098;51.140;4.088;2023-03-14T03:44:48;12.80;96.50
32217;DHT22;67098;51.140;4.088;2023-03-14T03:47:13;12.80;96.50
32217;DHT22;67098;51.140;4.088;2023-03-14T03:49:39;12.90;96.50
32217;DHT22;67098;51.140;4.088;2023-03-14T03:52:05;12.80;96.60
32217;DHT22;67098;51.140;4.088;2023-03-14T03:54:30;12.90;96.60
32217;DHT22;67098;51.140;4.088;2023-03-14T03:56:56;12.90;96.50
32217;DHT22;67098;51.140;4.088;2023-03-14T03:59:21;12.90;96.60
32217;DHT22;67098;51.140;4.088;2023-03-14T04:01:47;12.90;96.60
32217;DHT22;67098;51.140;4.088;2023-03-14T04:04:13;12.90;96.60
32217;DHT22;67098;51.140;4.088;2023-03-14T04:06:39;12.90;96.40
32217;DHT22;67098;51.140;4.088;2023-03-14T04:09:07;12.90;96.50
32217;DHT22;67098;51.140;4.088;2023-03-14T04:11:33;13.00;96.50
32217;DHT22;67098;51.140;4.088;2023-03-14T04:13:59;13.00;96.30
32217;DHT22;67098;51.140;4.088;2023-03-14T04:16:25;13.00;96.50
32217;DHT22;67098;51.140;4.088;2023-03-14T04:18:51;13.00;96.60
32217;DHT22;67098;51.140;4.088;2023-03-14T04:21:17;13.00;96.60
32217;DHT22;67098;51.140;4.088;2023-03-14T04:23:43;12.90;96.90
32217;DHT22;67098;51.140;4.088;2023-03-14T04:26:09;12.90;97.00
32217;DHT22;67098;51.140;4.088;2023-03-14T04:28:35;12.80;97.30
32217;DHT22;67098;51.140;4.088;2023-03-14T04:33:34;12.80;97.60
32217;DHT22;67098;51.140;4.088;2023-03-14T04:35:59;12.80;97.70
32217;DHT22;67098;51.140;4.088;2023-03-14T04:38:25;12.70;97.90
32217;DHT22;67098;51.140;4.088;2023-03-14T04:40:51;12.80;98.00
32217;DHT22;67098;51.140;4.088;2023-03-14T04:43:16;12.80;98.10
32217;DHT22;67098;51.140;4.088;2023-03-14T04:45:42;12.80;98.20
32217;DHT22;67098;51.140;4.088;2023-03-14T04:48:08;12.80;98.40
32217;DHT22;67098;51.140;4.088;2023-03-14T04:50:34;12.80;98.50
32217;DHT22;67098;51.140;4.088;2023-03-14T04:53:00;12.50;99.00
32217;DHT22;67098;51.140;4.088;2023-03-14T04:55:25;12.50;99.40
32217;DHT22;67098;51.140;4.088;2023-03-14T04:57:51;12.50;99.40
32217;DHT22;67098;51.140;4.088;2023-03-14T05:00:17;12.50;99.30
32217;DHT22;67098;51.140;4.088;2023-03-14T05:02:45;12.50;99.50
32217;DHT22;67098;51.140;4.088;2023-03-14T05:05:11;12.60;99.40
32217;DHT22;67098;51.140;4.088;2023-03-14T05:07:36;12.50;99.50
32217;DHT22;67098;51.140;4.088;2023-03-14T05:10:02;12.40;99.60
32217;DHT22;67098;51.140;4.088;2023-03-14T05:12:28;12.20;99.90
32217;DHT22;67098;51.140;4.088;2023-03-14T05:14:53;12.30;99.90
32217;DHT22;67098;51.140;4.088;2023-03-14T05:17:19;12.30;99.80
32217;DHT22;67098;51.140;4.088;2023-03-14T05:19:45;12.40;99.70
32217;DHT22;67098;51.140;4.088;2023-03-14T05:22:11;12.20;99.80
32217;DHT22;67098;51.140;4.088;2023-03-14T05:24:37;12.20;99.70
32217;DHT22;67098;51.140;4.088;2023-03-14T05:27:04;12.20;99.50
32217;DHT22;67098;51.140;4.088;2023-03-14T05:29:30;12.30;99.40
32217;DHT22;67098;51.140;4.088;2023-03-14T05:31:55;12.30;99.50
32217;DHT22;67098;51.140;4.088;2023-03-14T05:34:21;12.50;99.20
32217;DHT22;67098;51.140;4.088;2023-03-14T05:36:47;12.50;99.20
32217;DHT22;67098;51.140;4.088;2023-03-14T05:39:12;12.50;99.10
32217;DHT22;67098;51.140;4.088;2023-03-14T05:41:38;12.50;99.20
32217;DHT22;67098;51.140;4.088;2023-03-14T05:44:05;12.40;99.60
32217;DHT22;67098;51.140;4.088;2023-03-14T05:46:30;12.30;99.70
32217;DHT22;67098;51.140;4.088;2023-03-14T05:48:57;12.30;99.90
32217;DHT22;67098;51.140;4.088;2023-03-14T05:51:23;12.40;99.90
32217;DHT22;67098;51.140;4.088;2023-03-14T05:53:49;12.40;99.80
32217;DHT22;67098;51.140;4.088;2023-03-14T05:56:15;12.40;99.70
32217;DHT22;67098;51.140;4.088;2023-03-14T05:58:41;12.40;99.60
32217;DHT22;67098;51.140;4.088;2023-03-14T06:01:07;12.50;99.70
32217;DHT22;67098;51.140;4.088;2023-03-14T06:03:33;12.50;99.60
32217;DHT22;67098;51.140;4.088;2023-03-14T06:05:59;12.30;99.90
32217;DHT22;67098;51.140;4.088;2023-03-14T06:08:25;12.20;99.90
32217;DHT22;67098;51.140;4.088;2023-03-14T06:10:51;12.10;99.90
32217;DHT22;67098;51.140;4.088;2023-03-14T06:13:17;11.90;99.90
32217;DHT22;67098;51.140;4.088;2023-03-14T06:15:43;11.50;99.90
32217;DHT22;67098;51.140;4.088;2023-03-14T06:18:09;11.10;99.10
32217;DHT22;67098;51.140;4.088;2023-03-14T06:20:38;10.90;98.60
32217;DHT22;67098;51.140;4.088;2023-03-14T06:23:07;10.70;98.80
32217;DHT22;67098;51.140;4.088;2023-03-14T06:25:34;10.60;98.60
32217;DHT22;67098;51.140;4.088;2023-03-14T06:28:00;10.50;98.30
32217;DHT22;67098;51.140;4.088;2023-03-14T06:30:26;10.30;98.50
32217;DHT22;67098;51.140;4.088;2023-03-14T06:32:52;10.20;99.00
32217;DHT22;67098;51.140;4.088;2023-03-14T06:35:18;10.10;99.30
32217;DHT22;67098;51.140;4.088;2023-03-14T06:37:43;10.10;99.40
32217;DHT22;67098;51.140;4.088;2023-03-14T06:40:10;10.00;99.50
32217;DHT22;67098;51.140;4.088;2023-03-14T06:42:36;10.00;99.40
32217;DHT22;67098;51.140;4.088;2023-03-14T06:45:02;9.90;99.30
32217;DHT22;67098;51.140;4.088;2023-03-14T06:47:28;9.80;99.60
32217;DHT22;67098;51.140;4.088;2023-03-14T06:49:54;9.80;99.50
32217;DHT22;67098;51.140;4.088;2023-03-14T06:52:19;9.90;99.70
32217;DHT22;67098;51.140;4.088;2023-03-14T06:54:45;9.90;99.40
32217;DHT22;67098;51.140;4.088;2023-03-14T06:57:10;10.00;99.00
32217;DHT22;67098;51.140;4.088;2023-03-14T06:59:36;10.00;98.80
32217;DHT22;67098;51.140;4.088;2023-03-14T07:02:02;9.90;99.10
32217;DHT22;67098;51.140;4.088;2023-03-14T07:04:27;9.80;99.00
32217;DHT22;67098;51.140;4.088;2023-03-14T07:06:53;9.90;99.00
32217;DHT22;67098;51.140;4.088;2023-03-14T07:09:19;9.90;98.90
32217;DHT22;67098;51.140;4.088;2023-03-14T07:11:45;9.90;99.00
32217;DHT22;67098;51.140;4.088;2023-03-14T07:14:11;10.00;98.60
32217;DHT22;67098;51.140;4.088;2023-03-14T07:16:36;10.10;98.60
32217;DHT22;67098;51.140;4.088;2023-03-14T07:19:03;10.10;98.80
32217;DHT22;67098;51.140;4.088;2023-03-14T07:21:28;10.00;99.00
32217;DHT22;67098;51.140;4.088;2023-03-14T07:23:54;10.10;98.90
32217;DHT22;67098;51.140;4.088;2023-03-14T07:26:20;10.00;98.80
32217;DHT22;67098;51.140;4.088;2023-03-14T07:28:46;10.10;98.70
32217;DHT22;67098;51.140;4.088;2023-03-14T07:31:12;10.10;98.80
32217;DHT22;67098;51.140;4.088;2023-03-14T07:33:37;10.20;98.80
32217;DHT22;67098;51.140;4.088;2023-03-14T07:36:03;10.20;98.70
32217;DHT22;67098;51.140;4.088;2023-03-14T07:38:29;10.30;98.30
32217;DHT22;67098;51.140;4.088;2023-03-14T07:41:02;10.30;98.40
32217;DHT22;67098;51.140;4.088;2023-03-14T07:43:28;10.20;98.10
32217;DHT22;67098;51.140;4.088;2023-03-14T07:45:54;10.10;98.40
32217;DHT22;67098;51.140;4.088;2023-03-14T07:48:20;9.90;98.50
32217;DHT22;67098;51.140;4.088;2023-03-14T07:50:50;9.80;99.10
32217;DHT22;67098;51.140;4.088;2023-03-14T07:53:15;9.90;99.20
32217;DHT22;67098;51.140;4.088;2023-03-14T07:55:41;9.90;99.30
32217;DHT22;67098;51.140;4.088;2023-03-14T07:58:07;9.80;99.40
32217;DHT22;67098;51.140;4.088;2023-03-14T08:00:32;9.90;99.50
32217;DHT22;67098;51.140;4.088;2023-03-14T08:02:58;9.80;99.20
32217;DHT22;67098;51.140;4.088;2023-03-14T08:05:24;9.80;99.20
32217;DHT22;67098;51.140;4.088;2023-03-14T08:07:50;9.90;98.80
32217;DHT22;67098;51.140;4.088;2023-03-14T08:10:15;9.90;98.70
32217;DHT22;67098;51.140;4.088;2023-03-14T08:12:51;9.80;98.60
32217;DHT22;67098;51.140;4.088;2023-03-14T08:15:19;10.00;98.50
32217;DHT22;67098;51.140;4.088;2023-03-14T08:17:44;10.00;98.40
32217;DHT22;67098;51.140;4.088;2023-03-14T08:20:11;10.00;98.60
32217;DHT22;67098;51.140;4.088;2023-03-14T08:22:38;10.10;98.40
32217;DHT22;67098;51.140;4.088;2023-03-14T08:25:04;10.20;98.20
32217;DHT22;67098;51.140;4.088;2023-03-14T08:27:29;10.20;97.60
32217;DHT22;67098;51.140;4.088;2023-03-14T08:29:55;10.30;97.00
32217;DHT22;67098;51.140;4.088;2023-03-14T08:32:21;10.30;96.60
32217;DHT22;67098;51.140;4.088;2023-03-14T08:34:49;10.00;96.80
32217;DHT22;67098;51.140;4.088;2023-03-14T08:37:14;10.10;97.00
32217;DHT22;67098;51.140;4.088;2023-03-14T08:39:40;10.00;96.90
32217;DHT22;67098;51.140;4.088;2023-03-14T08:42:06;10.00;96.70
32217;DHT22;67098;51.140;4.088;2023-03-14T08:44:31;10.10;96.60
32217;DHT22;67098;51.140;4.088;2023-03-14T08:46:57;10.20;96.10
32217;DHT22;67098;51.140;4.088;2023-03-14T08:49:23;10.10;95.80
32217;DHT22;67098;51.140;4.088;2023-03-14T08:51:48;9.90;96.00
32217;DHT22;67098;51.140;4.088;2023-03-14T08:54:14;9.70;96.40
32217;DHT22;67098;51.140;4.088;2023-03-14T08:56:40;9.50;96.90
32217;DHT22;67098;51.140;4.088;2023-03-14T08:59:05;9.50;96.90
32217;DHT22;67098;51.140;4.088;2023-03-14T09:01:31;9.40;97.40
32217;DHT22;67098;51.140;4.088;2023-03-14T09:03:57;9.40;97.70
32217;DHT22;67098;51.140;4.088;2023-03-14T09:06:22;9.60;97.60
32217;DHT22;67098;51.140;4.088;2023-03-14T09:08:48;9.90;97.40
32217;DHT22;67098;51.140;4.088;2023-03-14T09:11:14;10.20;96.70
32217;DHT22;67098;51.140;4.088;2023-03-14T09:13:40;10.30;96.80
32217;DHT22;67098;51.140;4.088;2023-03-14T09:16:07;10.40;96.00
32217;DHT22;67098;51.140;4.088;2023-03-14T09:18:33;10.50;95.90
32217;DHT22;67098;51.140;4.088;2023-03-14T09:20:58;10.50;95.80
32217;DHT22;67098;51.140;4.088;2023-03-14T09:23:24;10.40;95.90
32217;DHT22;67098;51.140;4.088;2023-03-14T09:25:57;10.40;95.80
32217;DHT22;67098;51.140;4.088;2023-03-14T09:28:23;10.30;96.10
32217;DHT22;67098;51.140;4.088;2023-03-14T09:30:48;10.30;96.40
32217;DHT22;67098;51.140;4.088;2023-03-14T09:33:15;10.10;96.40
32217;DHT22;67098;51.140;4.088;2023-03-14T09:35:41;9.80;97.20
32217;DHT22;67098;51.140;4.088;2023-03-14T09:38:06;10.00;97.10
32217;DHT22;67098;51.140;4.088;2023-03-14T09:40:35;10.00;97.20
32217;DHT22;67098;51.140;4.088;2023-03-14T09:43:01;9.90;97.40
32217;DHT22;67098;51.140;4.088;2023-03-14T09:45:35;9.80;97.40
32217;DHT22;67098;51.140;4.088;2023-03-14T09:48:03;9.80;97.10
32217;DHT22;67098;51.140;4.088;2023-03-14T09:50:42;9.70;97.30
32217;DHT22;67098;51.140;4.088;2023-03-14T09:53:19;9.70;97.50
32217;DHT22;67098;51.140;4.088;2023-03-14T09:55:49;9.90;97.20
32217;DHT22;67098;51.140;4.088;2023-03-14T09:58:20;10.10;97.10
32217;DHT22;67098;51.140;4.088;2023-03-14T10:00:46;10.20;97.20
32217;DHT22;67098;51.140;4.088;2023-03-14T10:05:38;10.20;97.20
32217;DHT22;67098;51.140;4.088;2023-03-14T10:08:04;10.30;97.20
32217;DHT22;67098;51.140;4.088;2023-03-14T10:10:30;10.50;96.90
32217;DHT22;67098;51.140;4.088;2023-03-14T10:13:20;10.40;96.60
32217;DHT22;67098;51.140;4.088;2023-03-14T10:15:54;10.40;96.50
32217;DHT22;67098;51.140;4.088;2023-03-14T10:18:20;10.50;96.10
32217;DHT22;67098;51.140;4.088;2023-03-14T10:20:48;10.20;96.10
32217;DHT22;67098;51.140;4.088;2023-03-14T10:25:45;9.80;96.20
32217;DHT22;67098;51.140;4.088;2023-03-14T10:28:28;9.80;95.90
32217;DHT22;67098;51.140;4.088;2023-03-14T10:30:55;9.60;96.10
32217;DHT22;67098;51.140;4.088;2023-03-14T10:33:24;9.50;96.50
32217;DHT22;67098;51.140;4.088;2023-03-14T10:36:02;9.60;96.60
32217;DHT22;67098;51.140;4.088;2023-03-14T10:38:35;9.70;96.30
32217;DHT22;67098;51.140;4.088;2023-03-14T10:41:02;9.80;96.40
32217;DHT22;67098;51.140;4.088;2023-03-14T10:43:32;9.90;96.20
32217;DHT22;67098;51.140;4.088;2023-03-14T10:46:14;10.10;95.90
32217;DHT22;67098;51.140;4.088;2023-03-14T10:48:41;10.20;95.80
32217;DHT22;67098;51.140;4.088;2023-03-14T10:51:28;10.10;95.80
32217;DHT22;67098;51.140;4.088;2023-03-14T10:54:04;10.20;96.00
32217;DHT22;67098;51.140;4.088;2023-03-14T10:56:37;10.30;95.70
32217;DHT22;67098;51.140;4.088;2023-03-14T10:59:06;10.40;95.50
32217;DHT22;67098;51.140;4.088;2023-03-14T11:01:53;10.60;95.50
32217;DHT22;67098;51.140;4.088;2023-03-14T11:07:38;10.80;95.00
32217;DHT22;67098;51.140;4.088;2023-03-14T11:10:22;10.70;95.30
32217;DHT22;67098;51.140;4.088;2023-03-14T11:27:34;11.10;97.70
32217;DHT22;67098;51.140;4.088;2023-03-14T11:33:03;11.60;93.00
32217;DHT22;67098;51.140;4.088;2023-03-14T11:35:43;11.10;92.70
32217;DHT22;67098;51.140;4.088;2023-03-14T11:40:56;10.40;94.90
32217;DHT22;67098;51.140;4.088;2023-03-14T11:43:52;10.30;93.60
32217;DHT22;67098;51.140;4.088;2023-03-14T11:46:28;10.50;93.40
32217;DHT22;67098;51.140;4.088;2023-03-14T11:49:06;11.00;93.00
32217;DHT22;67098;51.140;4.088;2023-03-14T11:51:38;11.50;92.80
32217;DHT22;67098;51.140;4.088;2023-03-14T11:54:33;11.90;92.80
32217;DHT22;67098;51.140;4.088;2023-03-14T11:57:02;12.40;91.10
32217;DHT22;67098;51.140;4.088;2023-03-14T12:02:41;12.80;90.90
32217;DHT22;67098;51.140;4.088;2023-03-14T12:10:38;12.30;90.50
32217;DHT22;67098;51.140;4.088;2023-03-14T12:13:08;12.00;90.90
32217;DHT22;67098;51.140;4.088;2023-03-14T12:15:40;11.90;90.70
32217;DHT22;67098;51.140;4.088;2023-03-14T12:18:33;11.80;91.20
32217;DHT22;67098;51.140;4.088;2023-03-14T12:21:12;11.60;91.80
32217;DHT22;67098;51.140;4.088;2023-03-14T12:23:58;11.70;92.00
32217;DHT22;67098;51.140;4.088;2023-03-14T12:26:28;12.00;91.40
32217;DHT22;67098;51.140;4.088;2023-03-14T12:29:15;12.20;90.70
32217;DHT22;67098;51.140;4.088;2023-03-14T12:31:47;12.20;90.50
32217;DHT22;67098;51.140;4.088;2023-03-14T12:42:13;12.70;90.60
32217;DHT22;67098;51.140;4.088;2023-03-14T12:44:45;12.70;89.20
32217;DHT22;67098;51.140;4.088;2023-03-14T12:49:50;12.50;90.30
32217;DHT22;67098;51.140;4.088;2023-03-14T12:52:28;12.40;90.30
32217;DHT22;67098;51.140;4.088;2023-03-14T13:00:35;12.20;85.10
32217;DHT22;67098;51.140;4.088;2023-03-14T13:03:22;12.10;85.20
32217;DHT22;67098;51.140;4.088;2023-03-14T13:05:53;12.20;84.40
32217;DHT22;67098;51.140;4.088;2023-03-14T13:11:25;12.30;81.50
32217;DHT22;67098;51.140;4.088;2023-03-14T13:13:58;12.40;80.60
32217;DHT22;67098;51.140;4.088;2023-03-14T13:16:24;12.40;78.60
32217;DHT22;67098;51.140;4.088;2023-03-14T13:19:13;12.30;80.10
32217;DHT22;67098;51.140;4.088;2023-03-14T13:21:40;12.10;78.00
32217;DHT22;67098;51.140;4.088;2023-03-14T13:24:24;12.00;77.40
32217;DHT22;67098;51.140;4.088;2023-03-14T13:26:53;12.10;76.40
32217;DHT22;67098;51.140;4.088;2023-03-14T13:29:21;12.40;77.20
32217;DHT22;67098;51.140;4.088;2023-03-14T13:31:49;12.50;76.50
32217;DHT22;67098;51.140;4.088;2023-03-14T13:34:16;12.50;74.70
32217;DHT22;67098;51.140;4.088;2023-03-14T13:36:42;12.70;73.60
32217;DHT22;67098;51.140;4.088;2023-03-14T13:39:14;12.70;67.60
32217;DHT22;67098;51.140;4.088;2023-03-14T13:41:40;12.60;69.80
32217;DHT22;67098;51.140;4.088;2023-03-14T13:44:09;12.70;68.30
32217;DHT22;67098;51.140;4.088;2023-03-14T13:46:38;13.00;68.60
32217;DHT22;67098;51.140;4.088;2023-03-14T13:49:10;13.30;65.10
32217;DHT22;67098;51.140;4.088;2023-03-14T13:51:39;13.60;64.20
32217;DHT22;67098;51.140;4.088;2023-03-14T13:54:14;13.80;63.20
32217;DHT22;67098;51.140;4.088;2023-03-14T13:56:40;13.80;62.00
32217;DHT22;67098;51.140;4.088;2023-03-14T13:59:21;13.40;61.60
32217;DHT22;67098;51.140;4.088;2023-03-14T14:01:47;13.00;61.30
32217;DHT22;67098;51.140;4.088;2023-03-14T14:04:22;12.50;59.70
32217;DHT22;67098;51.140;4.088;2023-03-14T14:09:17;11.70;63.30
32217;DHT22;67098;51.140;4.088;2023-03-14T14:14:32;11.30;61.60
32217;DHT22;67098;51.140;4.088;2023-03-14T14:17:00;11.10;61.70
32217;DHT22;67098;51.140;4.088;2023-03-14T14:19:28;11.10;59.50
32217;DHT22;67098;51.140;4.088;2023-03-14T14:21:55;11.20;56.00
32217;DHT22;67098;51.140;4.088;2023-03-14T14:24:24;11.10;57.90
32217;DHT22;67098;51.140;4.088;2023-03-14T14:26:53;11.10;55.60
32217;DHT22;67098;51.140;4.088;2023-03-14T14:29:30;11.40;56.00
32217;DHT22;67098;51.140;4.088;2023-03-14T14:32:21;11.80;55.80
32217;DHT22;67098;51.140;4.088;2023-03-14T14:34:56;11.90;55.90
32217;DHT22;67098;51.140;4.088;2023-03-14T14:37:31;11.90;56.00
32217;DHT22;67098;51.140;4.088;2023-03-14T14:40:26;12.10;57.00
32217;DHT22;67098;51.140;4.088;2023-03-14T14:42:52;12.00;57.30
32217;DHT22;67098;51.140;4.088;2023-03-14T14:45:19;12.00;57.40
32217;DHT22;67098;51.140;4.088;2023-03-14T14:50:38;11.90;58.40
32217;DHT22;67098;51.140;4.088;2023-03-14T14:55:54;11.90;59.80
32217;DHT22;67098;51.140;4.088;2023-03-14T14:58:27;11.90;60.30
32217;DHT22;67098;51.140;4.088;2023-03-14T15:01:05;12.10;60.60
32217;DHT22;67098;51.140;4.088;2023-03-14T15:03:32;11.80;60.20
32217;DHT22;67098;51.140;4.088;2023-03-14T15:05:58;11.70;60.80
32217;DHT22;67098;51.140;4.088;2023-03-14T15:08:25;11.40;61.90
32217;DHT22;67098;51.140;4.088;2023-03-14T15:10:52;11.40;62.30
32217;DHT22;67098;51.140;4.088;2023-03-14T15:13:17;11.40;62.20
32217;DHT22;67098;51.140;4.088;2023-03-14T15:15:43;11.30;63.40
32217;DHT22;67098;51.140;4.088;2023-03-14T15:18:18;11.30;63.70
32217;DHT22;67098;51.140;4.088;2023-03-14T15:20:45;11.30;63.70
32217;DHT22;67098;51.140;4.088;2023-03-14T15:23:12;11.30;64.50
32217;DHT22;67098;51.140;4.088;2023-03-14T15:25:38;11.20;64.10
32217;DHT22;67098;51.140;4.088;2023-03-14T15:28:18;11.30;63.80
32217;DHT22;67098;51.140;4.088;2023-03-14T15:30:46;11.20;64.00
32217;DHT22;67098;51.140;4.088;2023-03-14T15:33:13;11.40;64.50
32217;DHT22;67098;51.140;4.088;2023-03-14T15:35:39;11.40;65.40
32217;DHT22;67098;51.140;4.088;2023-03-14T15:38:04;11.50;64.70
32217;DHT22;67098;51.140;4.088;2023-03-14T15:40:30;11.50;64.50
32217;DHT22;67098;51.140;4.088;2023-03-14T15:42:56;11.40;63.70
32217;DHT22;67098;51.140;4.088;2023-03-14T15:45:22;11.50;63.80
32217;DHT22;67098;51.140;4.088;2023-03-14T15:47:47;11.70;62.20
32217;DHT22;67098;51.140;4.088;2023-03-14T15:50:13;11.60;61.90
32217;DHT22;67098;51.140;4.088;2023-03-14T15:52:39;11.50;63.60
32217;DHT22;67098;51.140;4.088;2023-03-14T15:55:05;11.70;64.10
32217;DHT22;67098;51.140;4.088;2023-03-14T15:57:30;11.70;64.80
32217;DHT22;67098;51.140;4.088;2023-03-14T15:59:56;11.70;63.90
32217;DHT22;67098;51.140;4.088;2023-03-14T16:02:21;11.70;64.30
32217;DHT22;67098;51.140;4.088;2023-03-14T16:04:47;11.70;64.60
32217;DHT22;67098;51.140;4.088;2023-03-14T16:07:13;11.90;64.30
32217;DHT22;67098;51.140;4.088;2023-03-14T16:09:38;11.90;64.10
32217;DHT22;67098;51.140;4.088;2023-03-14T16:12:04;12.10;63.10
32217;DHT22;67098;51.140;4.088;2023-03-14T16:14:32;12.30;62.30
32217;DHT22;67098;51.140;4.088;2023-03-14T16:16:57;12.40;63.30
32217;DHT22;67098;51.140;4.088;2023-03-14T16:19:25;12.60;61.60
32217;DHT22;67098;51.140;4.088;2023-03-14T16:21:52;12.70;62.10
32217;DHT22;67098;51.140;4.088;2023-03-14T16:24:18;12.70;61.80
32217;DHT22;67098;51.140;4.088;2023-03-14T16:26:44;12.70;61.80
32217;DHT22;67098;51.140;4.088;2023-03-14T16:29:10;12.60;62.40
32217;DHT22;67098;51.140;4.088;2023-03-14T16:31:36;12.60;62.90
32217;DHT22;67098;51.140;4.088;2023-03-14T16:34:07;11.80;63.40
32217;DHT22;67098;51.140;4.088;2023-03-14T16:36:33;11.70;63.50
32217;DHT22;67098;51.140;4.088;2023-03-14T16:38:59;11.60;63.50
32217;DHT22;67098;51.140;4.088;2023-03-14T16:41:25;11.50;64.30
32217;DHT22;67098;51.140;4.088;2023-03-14T16:43:56;11.40;64.30
32217;DHT22;67098;51.140;4.088;2023-03-14T16:46:22;11.50;64.20
32217;DHT22;67098;51.140;4.088;2023-03-14T16:48:50;11.40;64.50
32217;DHT22;67098;51.140;4.088;2023-03-14T16:51:16;11.40;64.30
32217;DHT22;67098;51.140;4.088;2023-03-14T16:53:42;11.50;64.70
32217;DHT22;67098;51.140;4.088;2023-03-14T16:56:08;11.50;64.10